Time,TemperatureF,DewpointF,PressureIn,WindDirection,WindDirectionDegrees,WindSpeedMPH,WindSpeedGustMPH,Humidity,HourlyPrecipIn,Conditions,Clouds,dailyrainin,SoftwareType,DateUTC
2013-02-15 00:03:00,40.7,31.0,30.04,SSE,166,2.0,3.0,69,0.00,,,0.00,weatherlink.com 1.10,2013-02-15 05:03:00,
2013-02-15 00:18:00,40.3,31.0,30.04,WSW,255,0.0,4.0,70,0.00,,,0.00,weatherlink.com 1.10,2013-02-15 05:18:00,
2013-02-15 00:33:00,40.1,31.0,30.05,SW,221,3.0,5.0,71,0.00,,,0.00,weatherlink.com 1.10,2013-02-15 05:33:00,
2013-02-15 00:48:00,40.1,31.0,30.05,South,180,0.0,4.0,71,0.00,,,0.00,weatherlink.com 1.10,2013-02-15 05:48:00,
2013-02-15 01:04:00,40.0,31.0,30.06,WSW,256,1.0,5.0,71,0.00,,,0.00,weatherlink.com 1.10,2013-02-15 06:04:00,
2013-02-15 01:19:00,39.8,31.0,30.06,SE,146,1.0,5.0,72,0.00,,,0.00,weatherlink.com 1.10,2013-02-15 06:19:00,
2013-02-15 01:34:00,38.7,31.0,30.07,SW,214,1.0,4.0,74,0.00,,,0.00,weatherlink.com 1.10,2013-02-15 06:34:00,
2013-02-15 01:49:00,38.9,32.0,30.07,SW,216,1.0,5.0,75,0.00,,,0.00,weatherlink.com 1.10,2013-02-15 06:49:00,
2013-02-15 02:04:00,39.4,32.0,30.07,West,268,1.0,5.0,74,0.00,,,0.00,weatherlink.com 1.10,2013-02-15 07:04:00,
2013-02-15 02:19:00,39.4,32.0,30.06,SW,221,2.0,7.0,74,0.00,,,0.00,weatherlink.com 1.10,2013-02-15 07:19:00,
2013-02-15 02:34:00,39.2,32.0,30.05,SW,217,0.0,3.0,75,0.00,,,0.00,weatherlink.com 1.10,2013-02-15 07:34:00,
2013-02-15 02:49:00,38.8,32.0,30.05,South,187,0.0,3.0,75,0.00,,,0.00,weatherlink.com 1.10,2013-02-15 07:49:00,
2013-02-15 03:04:00,38.2,31.0,30.05,WSW,255,0.0,1.0,76,0.00,,,0.00,weatherlink.com 1.10,2013-02-15 08:04:00,
2013-02-15 03:19:00,37.3,31.0,30.05,WNW,288,0.0,1.0,78,0.00,,,0.00,weatherlink.com 1.10,2013-02-15 08:19:00,
2013-02-15 03:34:00,36.4,30.0,30.04,WSW,244,1.0,2.0,79,0.00,,,0.00,weatherlink.com 1.10,2013-02-15 08:34:00,
2013-02-15 03:49:00,36.2,31.0,30.04,NNW,336,0.0,2.0,80,0.00,,,0.00,weatherlink.com 1.10,2013-02-15 08:49:00,
2013-02-15 04:04:00,35.9,30.0,30.04,North,355,1.0,2.0,80,0.00,,,0.00,weatherlink.com 1.10,2013-02-15 09:04:00,
2013-02-15 04:19:00,35.5,31.0,30.04,North,355,0.0,2.0,82,0.00,,,0.00,weatherlink.com 1.10,2013-02-15 09:19:00,
2013-02-15 04:34:00,34.9,30.0,30.05,North,355,1.0,2.0,82,0.00,,,0.00,weatherlink.com 1.10,2013-02-15 09:34:00,
2013-02-15 04:49:00,34.5,30.0,30.05,SSE,157,0.0,1.0,83,0.00,,,0.00,weatherlink.com 1.10,2013-02-15 09:49:00,
2013-02-15 05:04:00,34.8,30.0,30.05,South,170,0.0,3.0,83,0.00,,,0.00,weatherlink.com 1.10,2013-02-15 10:04:00,
2013-02-15 05:19:00,34.6,30.0,30.06,South,170,0.0,0.0,83,0.00,,,0.00,weatherlink.com 1.10,2013-02-15 10:19:00,
2013-02-15 05:34:00,33.8,30.0,30.06,South,170,0.0,1.0,84,0.00,,,0.00,weatherlink.com 1.10,2013-02-15 10:34:00,
2013-02-15 05:49:00,32.8,29.0,30.06,South,170,0.0,0.0,85,0.00,,,0.00,weatherlink.com 1.10,2013-02-15 10:49:00,
2013-02-15 06:04:00,31.9,28.0,30.06,South,170,0.0,0.0,86,0.00,,,0.00,weatherlink.com 1.10,2013-02-15 11:04:00,
2013-02-15 06:19:00,31.4,29.0,30.06,South,170,0.0,0.0,89,0.00,,,0.00,weatherlink.com 1.10,2013-02-15 11:19:00,
2013-02-15 06:34:00,31.0,28.0,30.06,South,170,0.0,0.0,89,0.00,,,0.00,weatherlink.com 1.10,2013-02-15 11:34:00,
2013-02-15 06:49:00,30.7,28.0,30.06,South,170,0.0,1.0,90,0.00,,,0.00,weatherlink.com 1.10,2013-02-15 11:49:00,
2013-02-15 07:04:00,30.8,29.0,30.06,South,170,0.0,0.0,91,0.00,,,0.00,weatherlink.com 1.10,2013-02-15 12:04:00,
2013-02-15 07:19:00,30.6,28.0,30.06,South,170,0.0,0.0,91,0.00,,,0.00,weatherlink.com 1.10,2013-02-15 12:19:00,
2013-02-15 07:34:00,30.9,29.0,30.07,South,170,1.0,2.0,92,0.00,,,0.00,weatherlink.com 1.10,2013-02-15 12:34:00,
2013-02-15 07:49:00,31.1,29.0,30.08,South,170,0.0,0.0,91,0.00,,,0.00,weatherlink.com 1.10,2013-02-15 12:49:00,
2013-02-15 08:04:00,31.5,29.0,30.08,South,170,0.0,0.0,91,0.00,,,0.00,weatherlink.com 1.10,2013-02-15 13:04:00,
2013-02-15 08:19:00,32.6,30.0,30.09,South,170,1.0,1.0,91,0.00,,,0.00,weatherlink.com 1.10,2013-02-15 13:19:00,
2013-02-15 08:34:00,34.7,32.0,30.09,NW,311,2.0,3.0,89,0.00,,,0.00,weatherlink.com 1.10,2013-02-15 13:34:00,
2013-02-15 08:49:00,38.1,32.0,30.09,NW,305,3.0,4.0,80,0.00,,,0.00,weatherlink.com 1.10,2013-02-15 13:49:00,
2013-02-15 09:04:00,40.2,34.0,30.09,NW,316,1.0,3.0,77,0.00,,,0.00,weatherlink.com 1.10,2013-02-15 14:04:00,
2013-02-15 09:20:00,41.9,34.0,30.09,West,277,1.0,3.0,74,0.00,,,0.00,weatherlink.com 1.10,2013-02-15 14:20:00,
2013-02-15 09:35:00,44.5,37.0,30.09,WNW,282,0.0,2.0,74,0.00,,,0.00,weatherlink.com 1.10,2013-02-15 14:35:00,
2013-02-15 09:50:00,47.4,36.0,30.09,NW,325,2.0,5.0,65,0.00,,,0.00,weatherlink.com 1.10,2013-02-15 14:50:00,
2013-02-15 10:05:00,48.8,36.0,30.09,WSW,238,2.0,6.0,61,0.00,,,0.00,weatherlink.com 1.10,2013-02-15 15:05:00,
2013-02-15 10:20:00,50.1,35.0,30.08,WNW,282,1.0,8.0,57,0.00,,,0.00,weatherlink.com 1.10,2013-02-15 15:20:00,
2013-02-15 10:35:00,52.5,36.0,30.08,West,260,3.0,5.0,53,0.00,,,0.00,weatherlink.com 1.10,2013-02-15 15:35:00,
2013-02-15 10:50:00,54.6,36.0,30.07,South,176,5.0,10.0,49,0.00,,,0.00,weatherlink.com 1.10,2013-02-15 15:50:00,
2013-02-15 11:05:00,55.5,36.0,30.07,SSW,206,7.0,10.0,49,0.00,,,0.00,weatherlink.com 1.10,2013-02-15 16:05:00,
2013-02-15 11:20:00,55.9,35.0,30.06,West,265,2.0,10.0,45,0.00,,,0.00,weatherlink.com 1.10,2013-02-15 16:20:00,
2013-02-15 11:35:00,56.6,34.0,30.05,SSE,150,2.0,9.0,43,0.00,,,0.00,weatherlink.com 1.10,2013-02-15 16:35:00,
2013-02-15 11:50:00,56.9,34.0,30.05,South,173,2.0,10.0,43,0.00,,,0.00,weatherlink.com 1.10,2013-02-15 16:50:00,
2013-02-15 12:05:00,58.4,34.0,30.04,SE,136,6.0,7.0,40,0.00,,,0.00,weatherlink.com 1.10,2013-02-15 17:05:00,
2013-02-15 12:20:00,59.4,34.0,30.03,ESE,121,3.0,8.0,38,0.00,,,0.00,weatherlink.com 1.10,2013-02-15 17:20:00,
2013-02-15 12:35:00,59.7,33.0,30.02,SSW,208,2.0,9.0,37,0.00,,,0.00,weatherlink.com 1.10,2013-02-15 17:35:00,
2013-02-15 12:50:00,59.5,32.0,30.01,SSE,156,8.0,12.0,35,0.00,,,0.00,weatherlink.com 1.10,2013-02-15 17:50:00,
2013-02-15 13:05:00,59.1,33.0,30.01,SW,217,2.0,10.0,38,0.00,,,0.00,weatherlink.com 1.10,2013-02-15 18:05:00,
2013-02-15 13:20:00,59.2,32.0,30.00,WSW,252,4.0,11.0,36,0.00,,,0.00,weatherlink.com 1.10,2013-02-15 18:20:00,
2013-02-15 13:35:00,58.2,32.0,29.99,SW,233,3.0,10.0,37,0.00,,,0.00,weatherlink.com 1.10,2013-02-15 18:35:00,
2013-02-15 13:50:00,59.4,32.0,29.98,WNW,292,4.0,8.0,35,0.00,,,0.00,weatherlink.com 1.10,2013-02-15 18:50:00,
2013-02-15 14:05:00,60.1,32.0,29.97,WSW,243,4.0,6.0,35,0.00,,,0.00,weatherlink.com 1.10,2013-02-15 19:05:00,
2013-02-15 14:20:00,59.0,31.0,29.97,WSW,241,4.0,9.0,35,0.00,,,0.00,weatherlink.com 1.10,2013-02-15 19:20:00,
2013-02-15 14:36:00,59.5,32.0,29.96,SE,140,0.0,14.0,35,0.00,,,0.00,weatherlink.com 1.10,2013-02-15 19:36:00,
2013-02-15 14:51:00,62.4,31.0,29.95,South,176,7.0,9.0,31,0.00,,,0.00,weatherlink.com 1.10,2013-02-15 19:51:00,
2013-02-15 15:06:00,62.0,31.0,29.95,SW,231,1.0,9.0,31,0.00,,,0.00,weatherlink.com 1.10,2013-02-15 20:06:00,
2013-02-15 15:21:00,60.2,32.0,29.94,SSW,209,7.0,10.0,34,0.00,,,0.00,weatherlink.com 1.10,2013-02-15 20:21:00,
2013-02-15 15:36:00,60.2,31.0,29.93,SSE,150,4.0,13.0,33,0.00,,,0.00,weatherlink.com 1.10,2013-02-15 20:36:00,
2013-02-15 15:51:00,59.5,30.0,29.93,WNW,302,2.0,11.0,33,0.00,,,0.00,weatherlink.com 1.10,2013-02-15 20:51:00,
2013-02-15 16:06:00,60.3,31.0,29.92,West,277,2.0,10.0,33,0.00,,,0.00,weatherlink.com 1.10,2013-02-15 21:06:00,
2013-02-15 16:21:00,59.8,30.0,29.92,WSW,246,3.0,7.0,33,0.00,,,0.00,weatherlink.com 1.10,2013-02-15 21:21:00,
2013-02-15 16:36:00,59.5,29.0,29.92,North,355,1.0,9.0,32,0.00,,,0.00,weatherlink.com 1.10,2013-02-15 21:36:00,
2013-02-15 16:51:00,58.7,29.0,29.92,West,261,2.0,10.0,33,0.00,,,0.00,weatherlink.com 1.10,2013-02-15 21:51:00,
2013-02-15 17:06:00,58.0,30.0,29.92,SSE,165,2.0,13.0,34,0.00,,,0.00,weatherlink.com 1.10,2013-02-15 22:06:00,
2013-02-15 17:21:00,57.5,29.0,29.91,SSE,159,1.0,7.0,34,0.00,,,0.00,weatherlink.com 1.10,2013-02-15 22:21:00,
2013-02-15 17:36:00,56.8,29.0,29.92,SSW,195,0.0,4.0,35,0.00,,,0.00,weatherlink.com 1.10,2013-02-15 22:36:00,
2013-02-15 17:51:00,55.9,29.0,29.92,SW,219,2.0,5.0,36,0.00,,,0.00,weatherlink.com 1.10,2013-02-15 22:51:00,
2013-02-15 18:06:00,55.4,29.0,29.92,South,169,0.0,6.0,37,0.00,,,0.00,weatherlink.com 1.10,2013-02-15 23:06:00,
2013-02-15 18:21:00,54.9,30.0,29.92,West,270,0.0,3.0,39,0.00,,,0.00,weatherlink.com 1.10,2013-02-15 23:21:00,
2013-02-15 18:36:00,54.5,31.0,29.93,WNW,298,2.0,5.0,41,0.00,,,0.00,weatherlink.com 1.10,2013-02-15 23:36:00,
2013-02-15 18:51:00,54.3,32.0,29.93,SW,232,0.0,5.0,43,0.00,,,0.00,weatherlink.com 1.10,2013-02-15 23:51:00,
2013-02-15 19:06:00,54.0,32.0,29.94,West,263,2.0,5.0,44,0.00,,,0.00,weatherlink.com 1.10,2013-02-16 00:06:00,
2013-02-15 19:21:00,54.0,32.0,29.94,WNW,286,4.0,7.0,44,0.00,,,0.00,weatherlink.com 1.10,2013-02-16 00:21:00,
2013-02-15 19:36:00,53.7,33.0,29.94,WNW,290,2.0,5.0,46,0.00,,,0.00,weatherlink.com 1.10,2013-02-16 00:36:00,
2013-02-15 19:51:00,53.1,34.0,29.95,WNW,283,2.0,5.0,48,0.00,,,0.00,weatherlink.com 1.10,2013-02-16 00:51:00,
2013-02-15 20:06:00,51.9,37.0,29.96,West,267,3.0,14.0,58,0.00,,,0.00,weatherlink.com 1.10,2013-02-16 01:06:00,
2013-02-15 20:21:00,48.5,37.0,29.98,NW,304,3.0,14.0,65,0.00,,,0.00,weatherlink.com 1.10,2013-02-16 01:21:00,
2013-02-15 20:36:00,46.1,36.0,29.98,NW,326,7.0,12.0,67,0.00,,,0.00,weatherlink.com 1.10,2013-02-16 01:36:00,
2013-02-15 20:51:00,45.0,35.0,29.99,West,276,4.0,8.0,69,0.00,,,0.00,weatherlink.com 1.10,2013-02-16 01:51:00,
2013-02-15 21:06:00,44.3,35.0,29.99,NW,311,9.0,9.0,69,0.00,,,0.00,weatherlink.com 1.10,2013-02-16 02:06:00,
2013-02-15 21:21:00,43.7,34.0,30.00,NNW,343,9.0,10.0,69,0.00,,,0.00,weatherlink.com 1.10,2013-02-16 02:21:00,
2013-02-15 21:36:00,43.1,34.0,30.00,WNW,299,3.0,15.0,70,0.00,,,0.00,weatherlink.com 1.10,2013-02-16 02:36:00,
2013-02-15 21:51:00,42.1,34.0,30.00,NW,311,8.0,11.0,72,0.00,,,0.00,weatherlink.com 1.10,2013-02-16 02:51:00,
2013-02-15 22:06:00,41.6,34.0,30.00,WNW,297,3.0,12.0,73,0.00,,,0.00,weatherlink.com 1.10,2013-02-16 03:06:00,
2013-02-15 22:21:00,41.4,34.0,30.00,NW,305,3.0,7.0,74,0.00,,,0.00,weatherlink.com 1.10,2013-02-16 03:21:00,
2013-02-15 22:36:00,41.4,33.0,30.00,NW,323,0.0,6.0,73,0.00,,,0.00,weatherlink.com 1.10,2013-02-16 03:36:00,
2013-02-15 22:51:00,41.4,33.0,30.00,WNW,297,2.0,7.0,71,0.00,,,0.00,weatherlink.com 1.10,2013-02-16 03:51:00,
2013-02-15 23:06:00,41.5,32.0,30.00,WNW,285,5.0,8.0,70,0.00,,,0.00,weatherlink.com 1.10,2013-02-16 04:06:00,
2013-02-15 23:21:00,41.5,32.0,30.00,NW,317,3.0,9.0,70,0.00,,,0.00,weatherlink.com 1.10,2013-02-16 04:21:00,
2013-02-15 23:36:00,41.1,32.0,29.99,NNW,333,6.0,11.0,71,0.00,,,0.00,weatherlink.com 1.10,2013-02-16 04:36:00,
2013-02-15 23:51:00,40.7,32.0,30.00,NNW,342,3.0,7.0,71,0.00,,,0.00,weatherlink.com 1.10,2013-02-16 04:51:00,